sensor_id;sensor_type;location;lat;lon;timestamp;temperature;humidity
45685;DHT22;46836;48.388;16.210;2022-08-11T00:00:59;16.80;99.90
45685;DHT22;46836;48.388;16.210;2022-08-11T00:03:32;16.80;99.90
45685;DHT22;46836;48.388;16.210;2022-08-11T00:06:10;16.70;99.90
45685;DHT22;46836;48.388;16.210;2022-08-11T00:08:41;16.70;99.90
45685;DHT22;46836;48.388;16.210;2022-08-11T00:11:10;16.60;99.90
45685;DHT22;46836;48.388;16.210;2022-08-11T00:13:41;16.60;99.90
45685;DHT22;46836;48.388;16.210;2022-08-11T00:16:19;16.60;99.90
45685;DHT22;46836;48.388;16.210;2022-08-11T00:18:49;16.50;99.90
45685;DHT22;46836;48.388;16.210;2022-08-11T00:21:18;16.50;99.90
45685;DHT22;46836;48.388;16.210;2022-08-11T00:24:06;16.40;99.90
45685;DHT22;46836;48.388;16.210;2022-08-11T00:26:34;16.40;99.90
45685;DHT22;46836;48.388;16.210;2022-08-11T00:29:09;16.40;99.90
45685;DHT22;46836;48.388;16.210;2022-08-11T00:31:44;16.40;99.90
45685;DHT22;46836;48.388;16.210;2022-08-11T00:34:12;16.40;99.90
45685;DHT22;46836;48.388;16.210;2022-08-11T00:39:33;16.30;99.90
45685;DHT22;46836;48.388;16.210;2022-08-11T00:42:14;16.30;99.90
45685;DHT22;46836;48.388;16.210;2022-08-11T00:45:25;16.20;99.90
45685;DHT22;46836;48.388;16.210;2022-08-11T00:48:24;16.20;99.90
45685;DHT22;46836;48.388;16.210;2022-08-11T00:54:07;16.20;99.90
45685;DHT22;46836;48.388;16.210;2022-08-11T01:00:18;16.00;99.90
45685;DHT22;46836;48.388;16.210;2022-08-11T01:03:19;16.00;99.90
45685;DHT22;46836;48.388;16.210;2022-08-11T01:26:17;15.80;99.90
45685;DHT22;46836;48.388;16.210;2022-08-11T01:45:58;15.60;99.90
45685;DHT22;46836;48.388;16.210;2022-08-11T01:57:10;15.50;99.90
45685;DHT22;46836;48.388;16.210;2022-08-11T01:59:49;15.50;99.90
45685;DHT22;46836;48.388;16.210;2022-08-11T02:05:56;15.40;99.90
45685;DHT22;46836;48.388;16.210;2022-08-11T02:11:24;15.40;99.90
45685;DHT22;46836;48.388;16.210;2022-08-11T02:14:27;15.40;99.90
45685;DHT22;46836;48.388;16.210;2022-08-11T02:17:14;15.30;99.90
45685;DHT22;46836;48.388;16.210;2022-08-11T02:20:09;15.30;99.90
45685;DHT22;46836;48.388;16.210;2022-08-11T02:23:10;15.30;99.90
45685;DHT22;46836;48.388;16.210;2022-08-11T02:29:19;15.20;99.90
45685;DHT22;46836;48.388;16.210;2022-08-11T02:31:52;15.20;99.90
45685;DHT22;46836;48.388;16.210;2022-08-11T02:35:11;15.20;99.90
45685;DHT22;46836;48.388;16.210;2022-08-11T02:41:38;15.20;99.90
45685;DHT22;46836;48.388;16.210;2022-08-11T02:50:20;15.10;99.90
45685;DHT22;46836;48.388;16.210;2022-08-11T02:53:16;15.10;99.90
45685;DHT22;46836;48.388;16.210;2022-08-11T02:58:45;15.00;99.90
45685;DHT22;46836;48.388;16.210;2022-08-11T03:04:21;14.90;99.90
45685;DHT22;46836;48.388;16.210;2022-08-11T03:07:20;14.80;99.90
45685;DHT22;46836;48.388;16.210;2022-08-11T03:10:56;14.80;99.90
45685;DHT22;46836;48.388;16.210;2022-08-11T03:13:18;14.80;99.90
45685;DHT22;46836;48.388;16.210;2022-08-11T03:16:27;14.70;99.90
45685;DHT22;46836;48.388;16.210;2022-08-11T03:44:58;14.50;99.90
45685;DHT22;46836;48.388;16.210;2022-08-11T03:53:28;14.40;99.90
45685;DHT22;46836;48.388;16.210;2022-08-11T04:02:03;14.40;99.90
45685;DHT22;46836;48.388;16.210;2022-08-11T04:16:42;14.30;99.90
45685;DHT22;46836;48.388;16.210;2022-08-11T04:25:13;14.40;99.90
45685;DHT22;46836;48.388;16.210;2022-08-11T05:05:16;14.90;99.90
45685;DHT22;46836;48.388;16.210;2022-08-11T05:13:10;15.10;99.90
45685;DHT22;46836;48.388;16.210;2022-08-11T05:16:10;18.50;99.90
45685;DHT22;46836;48.388;16.210;2022-08-11T05:18:57;22.20;99.90
45685;DHT22;46836;48.388;16.210;2022-08-11T05:21:50;24.70;99.90
45685;DHT22;46836;48.388;16.210;2022-08-11T05:24:58;26.50;99.90
45685;DHT22;46836;48.388;16.210;2022-08-11T05:28:37;26.20;99.90
45685;DHT22;46836;48.388;16.210;2022-08-11T05:31:39;22.30;99.90
45685;DHT22;46836;48.388;16.210;2022-08-11T05:34:42;20.30;99.90
45685;DHT22;46836;48.388;16.210;2022-08-11T05:40:13;18.20;99.90
45685;DHT22;46836;48.388;16.210;2022-08-11T05:43:00;17.70;99.90
45685;DHT22;46836;48.388;16.210;2022-08-11T05:46:01;17.40;99.90
45685;DHT22;46836;48.388;16.210;2022-08-11T05:48:48;17.20;99.90
45685;DHT22;46836;48.388;16.210;2022-08-11T05:51:38;17.10;99.90
45685;DHT22;46836;48.388;16.210;2022-08-11T05:54:31;17.00;99.90
45685;DHT22;46836;48.388;16.210;2022-08-11T05:57:30;17.00;99.90
45685;DHT22;46836;48.388;16.210;2022-08-11T06:00:18;17.00;99.90
45685;DHT22;46836;48.388;16.210;2022-08-11T06:02:52;17.00;99.90
45685;DHT22;46836;48.388;16.210;2022-08-11T06:05:22;17.10;99.90
45685;DHT22;46836;48.388;16.210;2022-08-11T06:07:53;17.10;99.90
45685;DHT22;46836;48.388;16.210;2022-08-11T06:10:32;17.20;99.90
45685;DHT22;46836;48.388;16.210;2022-08-11T06:13:00;17.30;99.90
45685;DHT22;46836;48.388;16.210;2022-08-11T06:15:32;17.30;99.90
45685;DHT22;46836;48.388;16.210;2022-08-11T06:18:01;17.40;99.90
45685;DHT22;46836;48.388;16.210;2022-08-11T06:20:29;17.50;99.90
45685;DHT22;46836;48.388;16.210;2022-08-11T06:23:05;17.50;99.90
45685;DHT22;46836;48.388;16.210;2022-08-11T06:25:34;17.60;99.90
45685;DHT22;46836;48.388;16.210;2022-08-11T06:28:05;17.70;99.90
45685;DHT22;46836;48.388;16.210;2022-08-11T06:33:03;17.90;99.90
45685;DHT22;46836;48.388;16.210;2022-08-11T06:40:50;18.30;99.90
45685;DHT22;46836;48.388;16.210;2022-08-11T06:46:45;18.50;99.90
45685;DHT22;46836;48.388;16.210;2022-08-11T06:49:15;18.70;99.90
45685;DHT22;46836;48.388;16.210;2022-08-11T06:52:09;18.80;99.90
45685;DHT22;46836;48.388;16.210;2022-08-11T06:55:05;18.90;99.90
45685;DHT22;46836;48.388;16.210;2022-08-11T06:57:37;19.00;99.90
45685;DHT22;46836;48.388;16.210;2022-08-11T07:00:46;19.20;99.90
45685;DHT22;46836;48.388;16.210;2022-08-11T07:03:19;19.30;99.90
45685;DHT22;46836;48.388;16.210;2022-08-11T07:06:02;19.40;99.90
45685;DHT22;46836;48.388;16.210;2022-08-11T07:14:34;19.80;99.90
45685;DHT22;46836;48.388;16.210;2022-08-11T07:17:27;19.90;99.90
45685;DHT22;46836;48.388;16.210;2022-08-11T07:19:57;20.00;99.90
45685;DHT22;46836;48.388;16.210;2022-08-11T07:22:51;20.20;99.90
45685;DHT22;46836;48.388;16.210;2022-08-11T07:25:41;20.30;99.90
45685;DHT22;46836;48.388;16.210;2022-08-11T07:28:29;20.40;99.90
45685;DHT22;46836;48.388;16.210;2022-08-11T07:36:53;20.80;99.90
45685;DHT22;46836;48.388;16.210;2022-08-11T07:39:27;21.00;99.90
45685;DHT22;46836;48.388;16.210;2022-08-11T07:41:57;21.10;99.90
45685;DHT22;46836;48.388;16.210;2022-08-11T07:44:27;21.20;99.90
45685;DHT22;46836;48.388;16.210;2022-08-11T07:47:00;21.40;99.90
45685;DHT22;46836;48.388;16.210;2022-08-11T07:49:48;21.40;99.90
45685;DHT22;46836;48.388;16.210;2022-08-11T07:52:36;21.60;99.90
45685;DHT22;46836;48.388;16.210;2022-08-11T07:55:14;21.70;99.90
45685;DHT22;46836;48.388;16.210;2022-08-11T07:57:46;21.80;99.90
45685;DHT22;46836;48.388;16.210;2022-08-11T08:00:49;22.00;99.90
45685;DHT22;46836;48.388;16.210;2022-08-11T08:03:48;22.10;99.90
45685;DHT22;46836;48.388;16.210;2022-08-11T08:06:35;22.30;99.90
45685;DHT22;46836;48.388;16.210;2022-08-11T08:09:23;22.40;99.90
45685;DHT22;46836;48.388;16.210;2022-08-11T08:12:14;22.50;99.90
45685;DHT22;46836;48.388;16.210;2022-08-11T08:15:07;22.60;99.90
45685;DHT22;46836;48.388;16.210;2022-08-11T08:18:00;22.80;99.90
45685;DHT22;46836;48.388;16.210;2022-08-11T08:20:54;22.80;99.90
45685;DHT22;46836;48.388;16.210;2022-08-11T08:23:43;23.00;99.90
45685;DHT22;46836;48.388;16.210;2022-08-11T08:26:14;23.10;99.90
45685;DHT22;46836;48.388;16.210;2022-08-11T08:29:02;23.30;99.90
45685;DHT22;46836;48.388;16.210;2022-08-11T08:31:49;23.40;99.90
45685;DHT22;46836;48.388;16.210;2022-08-11T08:34:18;23.60;99.90
45685;DHT22;46836;48.388;16.210;2022-08-11T08:36:48;23.70;99.90
45685;DHT22;46836;48.388;16.210;2022-08-11T08:39:19;23.80;99.90
45685;DHT22;46836;48.388;16.210;2022-08-11T08:41:56;24.00;99.90
45685;DHT22;46836;48.388;16.210;2022-08-11T08:44:25;24.10;99.90
45685;DHT22;46836;48.388;16.210;2022-08-11T08:47:06;24.20;99.90
45685;DHT22;46836;48.388;16.210;2022-08-11T08:49:38;24.40;99.90
45685;DHT22;46836;48.388;16.210;2022-08-11T08:52:13;24.40;99.90
45685;DHT22;46836;48.388;16.210;2022-08-11T08:55:03;24.40;99.90
45685;DHT22;46836;48.388;16.210;2022-08-11T08:57:33;24.60;99.90
45685;DHT22;46836;48.388;16.210;2022-08-11T09:00:06;24.70;99.90
45685;DHT22;46836;48.388;16.210;2022-08-11T09:02:35;24.70;99.90
45685;DHT22;46836;48.388;16.210;2022-08-11T09:05:04;24.70;99.90
45685;DHT22;46836;48.388;16.210;2022-08-11T09:07:32;25.00;99.90
45685;DHT22;46836;48.388;16.210;2022-08-11T09:10:09;25.10;99.90
45685;DHT22;46836;48.388;16.210;2022-08-11T09:12:39;25.00;99.90
45685;DHT22;46836;48.388;16.210;2022-08-11T09:15:08;24.80;99.90
45685;DHT22;46836;48.388;16.210;2022-08-11T09:17:39;24.70;99.90
45685;DHT22;46836;48.388;16.210;2022-08-11T09:22:41;24.50;98.90
45685;DHT22;46836;48.388;16.210;2022-08-11T09:25:52;24.50;99.90
45685;DHT22;46836;48.388;16.210;2022-08-11T09:28:38;24.50;98.00
45685;DHT22;46836;48.388;16.210;2022-08-11T09:31:08;24.70;98.70
45685;DHT22;46836;48.388;16.210;2022-08-11T09:33:40;24.90;96.80
45685;DHT22;46836;48.388;16.210;2022-08-11T09:36:10;24.90;97.30
45685;DHT22;46836;48.388;16.210;2022-08-11T09:38:57;24.90;97.60
45685;DHT22;46836;48.388;16.210;2022-08-11T09:41:44;25.00;98.00
45685;DHT22;46836;48.388;16.210;2022-08-11T09:44:32;25.10;96.90
45685;DHT22;46836;48.388;16.210;2022-08-11T09:49:48;25.60;92.90
45685;DHT22;46836;48.388;16.210;2022-08-11T09:52:19;25.80;92.40
45685;DHT22;46836;48.388;16.210;2022-08-11T09:54:49;25.80;93.30
45685;DHT22;46836;48.388;16.210;2022-08-11T09:57:21;25.80;93.10
45685;DHT22;46836;48.388;16.210;2022-08-11T10:00:09;25.70;91.90
45685;DHT22;46836;48.388;16.210;2022-08-11T10:02:47;25.70;92.90
45685;DHT22;46836;48.388;16.210;2022-08-11T10:05:19;26.00;91.60
45685;DHT22;46836;48.388;16.210;2022-08-11T10:08:10;26.20;91.90
45685;DHT22;46836;48.388;16.210;2022-08-11T10:10:39;26.20;87.20
45685;DHT22;46836;48.388;16.210;2022-08-11T10:13:15;26.20;88.90
45685;DHT22;46836;48.388;16.210;2022-08-11T10:16:07;26.20;87.70
45685;DHT22;46836;48.388;16.210;2022-08-11T10:18:43;26.10;87.80
45685;DHT22;46836;48.388;16.210;2022-08-11T10:21:28;26.20;89.90
45685;DHT22;46836;48.388;16.210;2022-08-11T10:23:58;26.10;84.80
45685;DHT22;46836;48.388;16.210;2022-08-11T10:26:47;26.30;87.30
45685;DHT22;46836;48.388;16.210;2022-08-11T10:29:32;26.40;88.20
45685;DHT22;46836;48.388;16.210;2022-08-11T10:32:23;26.60;84.50
45685;DHT22;46836;48.388;16.210;2022-08-11T10:35:27;26.50;85.20
45685;DHT22;46836;48.388;16.210;2022-08-11T10:37:56;26.40;84.30
45685;DHT22;46836;48.388;16.210;2022-08-11T10:40:38;26.50;84.50
45685;DHT22;46836;48.388;16.210;2022-08-11T10:43:07;26.70;83.90
45685;DHT22;46836;48.388;16.210;2022-08-11T10:46:05;26.90;84.40
45685;DHT22;46836;48.388;16.210;2022-08-11T10:48:57;27.30;86.00
45685;DHT22;46836;48.388;16.210;2022-08-11T10:51:26;27.30;81.00
45685;DHT22;46836;48.388;16.210;2022-08-11T10:54:18;26.90;81.10
45685;DHT22;46836;48.388;16.210;2022-08-11T10:57:05;26.80;81.70
45685;DHT22;46836;48.388;16.210;2022-08-11T10:59:55;26.90;81.80
45685;DHT22;46836;48.388;16.210;2022-08-11T11:02:23;27.00;80.50
45685;DHT22;46836;48.388;16.210;2022-08-11T11:07:27;27.20;78.00
45685;DHT22;46836;48.388;16.210;2022-08-11T11:10:03;27.50;75.90
45685;DHT22;46836;48.388;16.210;2022-08-11T11:12:37;27.70;77.50
45685;DHT22;46836;48.388;16.210;2022-08-11T11:15:26;27.80;76.40
45685;DHT22;46836;48.388;16.210;2022-08-11T11:18:29;28.10;74.30
45685;DHT22;46836;48.388;16.210;2022-08-11T11:21:08;28.30;73.10
45685;DHT22;46836;48.388;16.210;2022-08-11T11:23:51;28.40;71.60
45685;DHT22;46836;48.388;16.210;2022-08-11T11:32:17;28.60;68.80
45685;DHT22;46836;48.388;16.210;2022-08-11T11:37:34;27.60;69.30
45685;DHT22;46836;48.388;16.210;2022-08-11T11:40:10;27.30;71.40
45685;DHT22;46836;48.388;16.210;2022-08-11T11:42:40;27.20;74.00
45685;DHT22;46836;48.388;16.210;2022-08-11T11:45:09;27.30;73.00
45685;DHT22;46836;48.388;16.210;2022-08-11T11:47:51;27.50;73.70
45685;DHT22;46836;48.388;16.210;2022-08-11T11:50:30;27.90;73.10
45685;DHT22;46836;48.388;16.210;2022-08-11T11:53:06;28.10;68.60
45685;DHT22;46836;48.388;16.210;2022-08-11T11:55:36;28.20;67.10
45685;DHT22;46836;48.388;16.210;2022-08-11T11:58:04;28.30;65.90
45685;DHT22;46836;48.388;16.210;2022-08-11T12:00:51;28.50;68.30
45685;DHT22;46836;48.388;16.210;2022-08-11T12:03:39;28.90;68.10
45685;DHT22;46836;48.388;16.210;2022-08-11T12:06:08;29.00;63.10
45685;DHT22;46836;48.388;16.210;2022-08-11T12:08:37;28.90;63.40
45685;DHT22;46836;48.388;16.210;2022-08-11T12:11:08;28.80;67.10
45685;DHT22;46836;48.388;16.210;2022-08-11T12:13:55;28.60;64.00
45685;DHT22;46836;48.388;16.210;2022-08-11T12:16:25;28.30;66.50
45685;DHT22;46836;48.388;16.210;2022-08-11T12:19:04;28.10;66.50
45685;DHT22;46836;48.388;16.210;2022-08-11T12:21:34;27.70;65.70
45685;DHT22;46836;48.388;16.210;2022-08-11T12:24:02;27.50;66.90
45685;DHT22;46836;48.388;16.210;2022-08-11T12:26:56;27.50;68.60
45685;DHT22;46836;48.388;16.210;2022-08-11T12:29:54;27.50;67.40
45685;DHT22;46836;48.388;16.210;2022-08-11T12:32:24;27.70;67.20
45685;DHT22;46836;48.388;16.210;2022-08-11T12:34:53;27.80;65.00
45685;DHT22;46836;48.388;16.210;2022-08-11T12:37:35;27.90;65.20
45685;DHT22;46836;48.388;16.210;2022-08-11T12:40:07;28.10;65.60
45685;DHT22;46836;48.388;16.210;2022-08-11T12:43:18;28.20;66.60
45685;DHT22;46836;48.388;16.210;2022-08-11T12:46:15;28.00;69.00
45685;DHT22;46836;48.388;16.210;2022-08-11T12:48:47;28.00;69.00
45685;DHT22;46836;48.388;16.210;2022-08-11T12:51:41;28.00;67.90
45685;DHT22;46836;48.388;16.210;2022-08-11T12:57:42;28.30;66.80
45685;DHT22;46836;48.388;16.210;2022-08-11T13:00:30;28.60;66.40
45685;DHT22;46836;48.388;16.210;2022-08-11T13:03:20;28.60;65.50
45685;DHT22;46836;48.388;16.210;2022-08-11T13:06:07;28.60;64.40
45685;DHT22;46836;48.388;16.210;2022-08-11T13:08:37;28.60;66.00
45685;DHT22;46836;48.388;16.210;2022-08-11T13:11:06;28.50;63.30
45685;DHT22;46836;48.388;16.210;2022-08-11T13:14:13;28.50;65.00
45685;DHT22;46836;48.388;16.210;2022-08-11T13:16:43;28.70;65.10
45685;DHT22;46836;48.388;16.210;2022-08-11T13:19:30;28.90;64.80
45685;DHT22;46836;48.388;16.210;2022-08-11T13:21:58;28.90;64.70
45685;DHT22;46836;48.388;16.210;2022-08-11T13:24:27;28.80;64.20
45685;DHT22;46836;48.388;16.210;2022-08-11T13:26:55;28.70;64.50
45685;DHT22;46836;48.388;16.210;2022-08-11T13:29:26;28.60;63.40
45685;DHT22;46836;48.388;16.210;2022-08-11T13:31:56;28.50;63.70
45685;DHT22;46836;48.388;16.210;2022-08-11T13:34:27;28.40;64.20
45685;DHT22;46836;48.388;16.210;2022-08-11T13:36:58;28.50;64.60
45685;DHT22;46836;48.388;16.210;2022-08-11T13:39:28;28.50;63.10
45685;DHT22;46836;48.388;16.210;2022-08-11T13:41:57;28.40;63.50
45685;DHT22;46836;48.388;16.210;2022-08-11T13:44:28;28.60;63.50
45685;DHT22;46836;48.388;16.210;2022-08-11T13:47:02;28.70;64.60
45685;DHT22;46836;48.388;16.210;2022-08-11T13:49:33;28.60;63.30
45685;DHT22;46836;48.388;16.210;2022-08-11T13:52:07;28.60;64.10
45685;DHT22;46836;48.388;16.210;2022-08-11T13:54:36;28.50;64.00
45685;DHT22;46836;48.388;16.210;2022-08-11T13:57:06;28.30;64.40
45685;DHT22;46836;48.388;16.210;2022-08-11T14:00:02;28.20;64.00
45685;DHT22;46836;48.388;16.210;2022-08-11T14:02:50;28.10;64.20
45685;DHT22;46836;48.388;16.210;2022-08-11T14:05:25;27.80;64.60
45685;DHT22;46836;48.388;16.210;2022-08-11T14:07:59;27.70;65.70
45685;DHT22;46836;48.388;16.210;2022-08-11T14:10:30;27.70;66.00
45685;DHT22;46836;48.388;16.210;2022-08-11T14:13:01;27.80;68.10
45685;DHT22;46836;48.388;16.210;2022-08-11T14:15:49;27.80;67.20
45685;DHT22;46836;48.388;16.210;2022-08-11T14:18:24;27.80;67.30
45685;DHT22;46836;48.388;16.210;2022-08-11T14:20:57;27.90;65.90
45685;DHT22;46836;48.388;16.210;2022-08-11T14:23:46;28.00;67.60
45685;DHT22;46836;48.388;16.210;2022-08-11T14:26:16;28.10;68.20
45685;DHT22;46836;48.388;16.210;2022-08-11T14:29:07;28.20;67.70
45685;DHT22;46836;48.388;16.210;2022-08-11T14:31:41;28.30;65.90
45685;DHT22;46836;48.388;16.210;2022-08-11T14:34:09;28.20;65.40
45685;DHT22;46836;48.388;16.210;2022-08-11T14:36:42;28.10;66.40
45685;DHT22;46836;48.388;16.210;2022-08-11T14:39:15;28.10;66.90
45685;DHT22;46836;48.388;16.210;2022-08-11T14:41:47;28.00;66.30
45685;DHT22;46836;48.388;16.210;2022-08-11T14:44:41;27.80;65.40
45685;DHT22;46836;48.388;16.210;2022-08-11T14:47:52;27.60;66.10
45685;DHT22;46836;48.388;16.210;2022-08-11T14:50:22;27.50;67.30
45685;DHT22;46836;48.388;16.210;2022-08-11T14:52:52;27.50;68.20
45685;DHT22;46836;48.388;16.210;2022-08-11T14:55:23;27.50;68.80
45685;DHT22;46836;48.388;16.210;2022-08-11T14:58:12;27.40;69.10
45685;DHT22;46836;48.388;16.210;2022-08-11T15:00:41;27.30;69.70
45685;DHT22;46836;48.388;16.210;2022-08-11T15:03:13;27.30;70.20
45685;DHT22;46836;48.388;16.210;2022-08-11T15:05:48;27.30;70.60
45685;DHT22;46836;48.388;16.210;2022-08-11T15:08:29;27.20;70.40
45685;DHT22;46836;48.388;16.210;2022-08-11T15:11:17;27.10;70.10
45685;DHT22;46836;48.388;16.210;2022-08-11T15:14:06;27.10;71.40
45685;DHT22;46836;48.388;16.210;2022-08-11T15:16:40;27.10;70.70
45685;DHT22;46836;48.388;16.210;2022-08-11T15:19:28;27.10;71.60
45685;DHT22;46836;48.388;16.210;2022-08-11T15:22:08;27.00;71.60
45685;DHT22;46836;48.388;16.210;2022-08-11T15:24:57;27.00;71.90
45685;DHT22;46836;48.388;16.210;2022-08-11T15:27:27;27.00;72.40
45685;DHT22;46836;48.388;16.210;2022-08-11T15:30:14;26.90;72.20
45685;DHT22;46836;48.388;16.210;2022-08-11T15:33:10;26.90;72.30
45685;DHT22;46836;48.388;16.210;2022-08-11T15:36:00;26.90;71.00
45685;DHT22;46836;48.388;16.210;2022-08-11T15:38:57;26.80;71.90
45685;DHT22;46836;48.388;16.210;2022-08-11T15:41:46;26.80;70.60
45685;DHT22;46836;48.388;16.210;2022-08-11T15:44:34;26.70;70.40
45685;DHT22;46836;48.388;16.210;2022-08-11T15:47:40;26.70;71.30
45685;DHT22;46836;48.388;16.210;2022-08-11T15:50:13;26.60;71.80
45685;DHT22;46836;48.388;16.210;2022-08-11T15:52:51;26.60;70.00
45685;DHT22;46836;48.388;16.210;2022-08-11T15:55:18;26.50;70.60
45685;DHT22;46836;48.388;16.210;2022-08-11T15:57:49;26.50;70.70
45685;DHT22;46836;48.388;16.210;2022-08-11T16:00:36;26.50;70.90
45685;DHT22;46836;48.388;16.210;2022-08-11T16:03:35;26.40;70.80
45685;DHT22;46836;48.388;16.210;2022-08-11T16:06:56;26.40;71.00
45685;DHT22;46836;48.388;16.210;2022-08-11T16:12:15;26.30;70.20
45685;DHT22;46836;48.388;16.210;2022-08-11T16:14:46;26.30;70.20
45685;DHT22;46836;48.388;16.210;2022-08-11T16:17:45;26.30;70.00
45685;DHT22;46836;48.388;16.210;2022-08-11T16:20:15;26.10;69.70
45685;DHT22;46836;48.388;16.210;2022-08-11T16:22:44;26.10;69.70
45685;DHT22;46836;48.388;16.210;2022-08-11T16:25:28;26.10;69.30
45685;DHT22;46836;48.388;16.210;2022-08-11T16:28:17;26.00;69.10
45685;DHT22;46836;48.388;16.210;2022-08-11T16:30:47;25.90;69.00
45685;DHT22;46836;48.388;16.210;2022-08-11T16:33:15;25.90;69.40
45685;DHT22;46836;48.388;16.210;2022-08-11T16:36:04;25.90;69.00
45685;DHT22;46836;48.388;16.210;2022-08-11T16:38:55;25.90;68.50
45685;DHT22;46836;48.388;16.210;2022-08-11T16:41:26;25.90;68.50
45685;DHT22;46836;48.388;16.210;2022-08-11T16:44:15;26.00;66.70
45685;DHT22;46836;48.388;16.210;2022-08-11T16:47:10;26.00;65.00
45685;DHT22;46836;48.388;16.210;2022-08-11T16:49:42;26.00;62.50
45685;DHT22;46836;48.388;16.210;2022-08-11T16:52:19;25.90;61.40
45685;DHT22;46836;48.388;16.210;2022-08-11T16:54:47;25.90;63.80
45685;DHT22;46836;48.388;16.210;2022-08-11T16:57:25;25.80;62.10
45685;DHT22;46836;48.388;16.210;2022-08-11T17:00:15;25.70;60.40
45685;DHT22;46836;48.388;16.210;2022-08-11T17:02:53;25.60;61.80
45685;DHT22;46836;48.388;16.210;2022-08-11T17:05:45;25.60;62.10
45685;DHT22;46836;48.388;16.210;2022-08-11T17:08:45;25.50;62.10
45685;DHT22;46836;48.388;16.210;2022-08-11T17:11:35;25.50;63.00
45685;DHT22;46836;48.388;16.210;2022-08-11T17:14:28;25.40;63.50
45685;DHT22;46836;48.388;16.210;2022-08-11T17:17:05;25.30;63.30
45685;DHT22;46836;48.388;16.210;2022-08-11T17:19:33;25.30;63.70
45685;DHT22;46836;48.388;16.210;2022-08-11T17:22:25;25.30;63.90
45685;DHT22;46836;48.388;16.210;2022-08-11T17:25:15;25.20;65.50
45685;DHT22;46836;48.388;16.210;2022-08-11T17:27:44;25.20;65.10
45685;DHT22;46836;48.388;16.210;2022-08-11T17:30:13;25.10;65.90
45685;DHT22;46836;48.388;16.210;2022-08-11T17:32:48;25.10;66.60
45685;DHT22;46836;48.388;16.210;2022-08-11T17:35:37;25.20;67.00
45685;DHT22;46836;48.388;16.210;2022-08-11T17:38:15;25.30;67.80
45685;DHT22;46836;48.388;16.210;2022-08-11T17:41:01;25.40;67.80
45685;DHT22;46836;48.388;16.210;2022-08-11T17:43:49;25.40;67.60
45685;DHT22;46836;48.388;16.210;2022-08-11T17:46:38;25.30;67.80
45685;DHT22;46836;48.388;16.210;2022-08-11T17:49:32;25.20;68.30
45685;DHT22;46836;48.388;16.210;2022-08-11T17:52:06;25.10;68.10
45685;DHT22;46836;48.388;16.210;2022-08-11T17:54:53;25.00;68.30
45685;DHT22;46836;48.388;16.210;2022-08-11T17:57:40;24.80;68.80
45685;DHT22;46836;48.388;16.210;2022-08-11T18:00:26;24.70;68.80
45685;DHT22;46836;48.388;16.210;2022-08-11T18:02:55;24.60;69.10
45685;DHT22;46836;48.388;16.210;2022-08-11T18:05:45;24.50;69.30
45685;DHT22;46836;48.388;16.210;2022-08-11T18:08:15;24.30;69.50
45685;DHT22;46836;48.388;16.210;2022-08-11T18:11:03;24.20;69.90
45685;DHT22;46836;48.388;16.210;2022-08-11T18:14:11;24.10;70.20
45685;DHT22;46836;48.388;16.210;2022-08-11T18:16:57;24.00;70.70
45685;DHT22;46836;48.388;16.210;2022-08-11T18:19:43;23.90;71.00
45685;DHT22;46836;48.388;16.210;2022-08-11T18:22:35;23.80;71.30
45685;DHT22;46836;48.388;16.210;2022-08-11T18:25:34;23.60;71.70
45685;DHT22;46836;48.388;16.210;2022-08-11T18:28:25;23.50;73.00
45685;DHT22;46836;48.388;16.210;2022-08-11T18:31:14;23.40;72.50
45685;DHT22;46836;48.388;16.210;2022-08-11T18:34:04;23.30;72.80
45685;DHT22;46836;48.388;16.210;2022-08-11T18:37:03;23.20;73.00
45685;DHT22;46836;48.388;16.210;2022-08-11T18:40:19;23.10;73.90
45685;DHT22;46836;48.388;16.210;2022-08-11T18:43:10;23.00;77.20
45685;DHT22;46836;48.388;16.210;2022-08-11T18:46:05;22.90;75.50
45685;DHT22;46836;48.388;16.210;2022-08-11T18:49:02;22.70;76.00
45685;DHT22;46836;48.388;16.210;2022-08-11T18:52:12;22.60;76.00
45685;DHT22;46836;48.388;16.210;2022-08-11T18:55:02;22.40;76.10
45685;DHT22;46836;48.388;16.210;2022-08-11T18:57:51;22.40;76.70
45685;DHT22;46836;48.388;16.210;2022-08-11T19:00:39;22.30;77.20
45685;DHT22;46836;48.388;16.210;2022-08-11T19:03:27;22.20;77.30
45685;DHT22;46836;48.388;16.210;2022-08-11T19:06:18;22.10;77.80
45685;DHT22;46836;48.388;16.210;2022-08-11T19:09:12;22.00;77.80
45685;DHT22;46836;48.388;16.210;2022-08-11T19:11:59;22.00;78.20
45685;DHT22;46836;48.388;16.210;2022-08-11T19:14:48;21.90;78.00
45685;DHT22;46836;48.388;16.210;2022-08-11T19:17:38;21.80;78.20
45685;DHT22;46836;48.388;16.210;2022-08-11T19:20:26;21.80;78.30
45685;DHT22;46836;48.388;16.210;2022-08-11T19:23:23;21.70;78.20
45685;DHT22;46836;48.388;16.210;2022-08-11T19:26:10;21.70;78.50
45685;DHT22;46836;48.388;16.210;2022-08-11T19:28:57;21.60;78.20
45685;DHT22;46836;48.388;16.210;2022-08-11T19:32:04;21.60;78.50
45685;DHT22;46836;48.388;16.210;2022-08-11T19:34:50;21.50;78.50
45685;DHT22;46836;48.388;16.210;2022-08-11T19:37:39;21.50;78.70
45685;DHT22;46836;48.388;16.210;2022-08-11T19:40:25;21.40;78.70
45685;DHT22;46836;48.388;16.210;2022-08-11T19:43:12;21.30;78.50
45685;DHT22;46836;48.388;16.210;2022-08-11T19:45:59;21.30;79.40
45685;DHT22;46836;48.388;16.210;2022-08-11T19:48:50;21.30;79.50
45685;DHT22;46836;48.388;16.210;2022-08-11T19:51:38;21.20;79.60
45685;DHT22;46836;48.388;16.210;2022-08-11T19:54:31;21.10;79.50
45685;DHT22;46836;48.388;16.210;2022-08-11T19:57:19;21.00;79.70
45685;DHT22;46836;48.388;16.210;2022-08-11T20:00:16;21.00;79.50
45685;DHT22;46836;48.388;16.210;2022-08-11T20:03:12;20.90;80.00
45685;DHT22;46836;48.388;16.210;2022-08-11T20:06:01;20.90;80.90
45685;DHT22;46836;48.388;16.210;2022-08-11T20:08:48;20.80;81.40
45685;DHT22;46836;48.388;16.210;2022-08-11T20:11:37;20.80;81.70
45685;DHT22;46836;48.388;16.210;2022-08-11T20:14:26;20.70;83.00
45685;DHT22;46836;48.388;16.210;2022-08-11T20:17:15;20.60;84.40
45685;DHT22;46836;48.388;16.210;2022-08-11T20:20:04;20.50;84.70
45685;DHT22;46836;48.388;16.210;2022-08-11T20:22:53;20.40;84.60
45685;DHT22;46836;48.388;16.210;2022-08-11T20:25:39;20.40;84.90
45685;DHT22;46836;48.388;16.210;2022-08-11T20:28:47;20.30;85.20
45685;DHT22;46836;48.388;16.210;2022-08-11T20:31:34;20.20;85.20
45685;DHT22;46836;48.388;16.210;2022-08-11T20:34:20;20.10;85.30
45685;DHT22;46836;48.388;16.210;2022-08-11T20:37:06;20.10;84.30